ADDS METAR Data INFO
IDs: Format: Raw Decoded Include TAF

Data at: 0255 UTC 21 Jan 2018

K20U 210255Z AUTO 23009KT 10SM CLR M04/M07 A2997 RMK AO2
K20U 210235Z AUTO 23005KT 10SM CLR M04/M06 A2997 RMK AO2
K20U 210215Z AUTO 23005KT 10SM CLR M04/M06 A2997 RMK AO2
K20U 210155Z AUTO 23007KT 10SM CLR M04/M06 A2996 RMK AO2
K20U 210135Z AUTO 24009KT 10SM CLR M03/M06 A2996 RMK AO2
K20U 210115Z AUTO 25009KT 10SM CLR M04/M06 A2995 RMK AO2
K20U 210055Z AUTO 25007KT 10SM CLR M04/M06 A2995 RMK AO2
K20U 210035Z AUTO 24007KT 10SM CLR M04/M06 A2995 RMK AO2
K20U 210015Z AUTO 24008KT 10SM CLR M03/M05 A2994 RMK AO2
K20U 202355Z AUTO 25009KT 10SM CLR M02/M05 A2994 RMK AO2
K20U 202335Z AUTO 26010KT 10SM CLR M02/M05 A2993 RMK AO2
K20U 202315Z AUTO 27011KT 10SM CLR M01/M05 A2992 RMK AO2
K20U 202255Z AUTO 27010KT 10SM CLR M01/M05 A2992 RMK AO2
K20U 202235Z AUTO 27010KT 10SM CLR M00/M04 A2991 RMK AO2
K20U 202215Z AUTO 26011KT 10SM CLR M00/M04 A2991 RMK AO2
K20U 202155Z AUTO 26013KT 10SM CLR 00/M04 A2991 RMK AO2
K20U 202135Z AUTO 25013KT 10SM CLR 00/M04 A2990 RMK AO2
K20U 202115Z AUTO 26011KT 10SM CLR 01/M04 A2990 RMK AO2
K20U 202055Z AUTO 26009KT 10SM CLR 01/M04 A2989 RMK AO2
K20U 202035Z AUTO 26010G16KT 10SM CLR 01/M05 A2989 RMK AO2
K20U 202015Z AUTO 27011KT 10SM CLR 01/M05 A2989 RMK AO2
K20U 201955Z AUTO 25010KT 10SM CLR 01/M04 A2989 RMK AO2
K20U 201935Z AUTO 26013KT 10SM CLR 01/M04 A2989 RMK AO2
K20U 201915Z AUTO 26014KT 10SM CLR 01/M04 A2990 RMK AO2
K20U 201855Z AUTO 26015KT 10SM CLR 00/M04 A2990 RMK AO2
K20U 201835Z AUTO 26012KT 10SM CLR 00/M05 A2991 RMK AO2
K20U 201815Z AUTO 25011G16KT 10SM CLR M00/M04 A2991 RMK AO2
K20U 201755Z AUTO 25011KT 10SM CLR 00/M04 A2992 RMK AO2
K20U 201735Z AUTO 25012KT 10SM CLR 00/M04 A2992 RMK AO2
K20U 201715Z AUTO 26013KT 10SM CLR M00/M04 A2991 RMK AO2
K20U 201655Z AUTO 25013KT 10SM CLR M01/M04 A2990 RMK AO2
K20U 201635Z AUTO 25013KT 10SM CLR M00/M04 A2990 RMK AO2
K20U 201615Z AUTO 25013KT 10SM CLR M01/M04 A2989 RMK AO2
K20U 201555Z AUTO 26012KT 10SM CLR M02/M04 A2989 RMK AO2
K20U 201535Z AUTO 26012KT 10SM CLR M02/M05 A2988 RMK AO2
K20U 201515Z AUTO 26011KT 10SM CLR M02/M04 A2987 RMK AO2
K20U 201455Z AUTO 27012KT 10SM CLR M02/M04 A2986 RMK AO2
K20U 201435Z AUTO 27012KT 10SM CLR M02/M04 A2986 RMK AO2
K20U 201415Z AUTO 26012KT 10SM CLR M01/M03 A2986 RMK AO2
K20U 201355Z AUTO 26011KT 10SM CLR M01/M03 A2986 RMK AO2
K20U 201335Z AUTO 27012KT 10SM SCT120 M01/M03 A2986 RMK AO2
K20U 201315Z AUTO 26013KT 10SM SCT120 M01/M03 A2985 RMK AO2
K20U 201255Z AUTO 26013KT 10SM CLR M01/M03 A2985 RMK AO2
K20U 201235Z AUTO 26012KT 10SM FEW120 M01/M03 A2984 RMK AO2
K20U 201215Z AUTO 26012KT 10SM FEW110 M01/M02 A2984 RMK AO2
K20U 201155Z AUTO 26011KT 10SM FEW110 M00/M02 A2984 RMK AO2
K20U 201135Z AUTO 26011KT 10SM SCT110 M00/M02 A2983 RMK AO2
K20U 201115Z AUTO 26013KT 10SM OVC120 M00/M02 A2982 RMK AO2
K20U 201055Z AUTO 26015KT 10SM OVC120 M00/M01 A2982 RMK AO2
K20U 201035Z AUTO 26011KT 10SM BKN110 M00/M01 A2982 RMK AO2
K20U 201015Z AUTO 26011KT 10SM BKN110 M00/M01 A2981 RMK AO2
K20U 200955Z AUTO 26010KT 10SM BKN110 M00/M01 A2981 RMK AO2
K20U 200935Z AUTO 24007KT 10SM BKN100 M01/M00 A2981 RMK AO2
K20U 200915Z AUTO 25010KT 10SM OVC100 M00/M00 A2981 RMK AO2
K20U 200855Z AUTO 23008KT 10SM OVC100 M01/M01 A2980 RMK AO2
K20U 200835Z AUTO 21007KT 10SM OVC100 M00/M00 A2980 RMK AO2
K20U 200815Z AUTO 22008KT 10SM SCT075 OVC100 M00/M00 A2980 RMK AO2
K20U 200755Z AUTO 20009KT 10SM SCT070 BKN080 OVC095 00/00 A2981 RMK AO2
K20U 200735Z AUTO 23008KT 10SM SCT070 BKN080 OVC095 00/00 A2980 RMK AO2
K20U 200715Z AUTO 23008KT 10SM SCT080 OVC095 00/00 A2980 RMK AO2
K20U 200655Z AUTO 23008KT 6SM BR BKN003 BKN075 OVC095 00/00 A2980 RMK AO2
K20U 200635Z AUTO 25008KT 1/2SM FG OVC003 00/00 A2980 RMK AO2
K20U 200615Z AUTO 25010KT 1/4SM FZFG OVC003 M00/M00 A2980 RMK AO2
K20U 200555Z AUTO 25011KT 10SM FEW003 BKN070 OVC090 00/00 A2979 RMK AO2
K20U 200535Z AUTO 25009KT 10SM SCT075 OVC085 01/01 A2978 RMK AO2
K20U 200515Z AUTO 26010KT 10SM OVC075 01/01 A2977 RMK AO2
K20U 200455Z AUTO 26011KT 10SM BKN070 OVC075 01/01 A2977 RMK AO2
K20U 200435Z AUTO 26010KT 10SM BKN070 OVC075 01/01 A2976 RMK AO2
K20U 200415Z AUTO 26011KT 10SM OVC070 01/01 A2977 RMK AO2
K20U 200355Z AUTO 26011KT 10SM BKN070 OVC085 01/01 A2976 RMK AO2
K20U 200335Z AUTO 26010KT 10SM OVC065 01/01 A2975 RMK AO2
K20U 200315Z AUTO 25010KT 10SM OVC065 01/01 A2975 RMK AO2
K20U 200255Z AUTO 25008KT 10SM OVC060 01/01 A2975 RMK AO2
K20U 200235Z AUTO 24009KT 10SM SCT050 BKN065 OVC075 00/00 A2974 RMK AO2
K20U 200215Z AUTO 25008KT 10SM SCT043 BKN049 OVC070 01/01 A2974 RMK AO2
K20U 200155Z AUTO 26009KT 10SM FEW040 BKN060 OVC075 01/01 A2974 RMK AO2
K20U 200135Z AUTO 26009KT 10SM SCT060 OVC070 01/01 A2974 RMK AO2
K20U 200115Z AUTO 25009KT 10SM SCT040 BKN048 OVC075 01/01 A2974 RMK AO2
K20U 200055Z AUTO 26009KT 10SM SCT040 BKN050 OVC075 01/01 A2973 RMK AO2
K20U 200035Z AUTO 26009KT 10SM FEW046 BKN080 OVC090 01/01 A2973 RMK AO2
K20U 200015Z AUTO 26009KT 10SM SCT080 OVC090 01/01 A2973 RMK AO2
K20U 192355Z AUTO 27009KT 10SM OVC095 01/01 A2972 RMK AO2
K20U 192335Z AUTO 26010KT 10SM BKN100 01/01 A2971 RMK AO2
K20U 192315Z AUTO 26010KT 10SM CLR 01/01 A2971 RMK AO2
K20U 192255Z AUTO 27010KT 10SM CLR 01/01 A2970 RMK AO2
K20U 192235Z AUTO 27010KT 10SM CLR 02/01 A2969 RMK AO2
K20U 192215Z AUTO 26011KT 10SM CLR 02/01 A2969 RMK AO2
K20U 192155Z AUTO 25010KT 10SM CLR 02/01 A2969 RMK AO2
K20U 192135Z AUTO 25011KT 10SM CLR 02/01 A2969 RMK AO2
K20U 192115Z AUTO 26011KT 10SM CLR 02/01 A2968 RMK AO2
K20U 192055Z AUTO 26012KT 10SM CLR 02/01 A2969 RMK AO2
K20U 192035Z AUTO 25011KT 10SM CLR 03/01 A2969 RMK AO2
K20U 192015Z AUTO 26011KT 10SM CLR 03/01 A2970 RMK AO2
K20U 191955Z AUTO 25012G17KT 10SM CLR 03/01 A2969 RMK AO2
K20U 191935Z AUTO 25013KT 10SM CLR 03/01 A2968 RMK AO2
K20U 191915Z AUTO 26012KT 10SM CLR 03/01 A2968 RMK AO2
K20U 191855Z AUTO 25011KT 10SM CLR 03/01 A2968 RMK AO2
K20U 191835Z AUTO 26011KT 10SM FEW120 02/01 A2969 RMK AO2
K20U 191815Z AUTO 26014KT 10SM SCT120 02/01 A2970 RMK AO2
K20U 191755Z AUTO 26013KT 10SM SCT120 02/01 A2970 RMK AO2
K20U 191735Z AUTO 26013KT 10SM FEW110 03/01 A2968 RMK AO2
K20U 191715Z AUTO 27010KT 10SM FEW100 02/01 A2968 RMK AO2
K20U 191655Z AUTO 26012KT 10SM BKN100 02/00 A2968 RMK AO2
K20U 191635Z AUTO 27013KT 10SM FEW090 BKN110 02/00 A2968 RMK AO2
K20U 191615Z AUTO 27010KT 10SM FEW095 BKN110 02/00 A2967 RMK AO2
K20U 191555Z AUTO 27011KT 10SM FEW065 OVC110 02/00 A2965 RMK AO2
K20U 191535Z AUTO 28012KT 10SM SCT065 BKN080 OVC100 02/M00 A2965 RMK AO2
K20U 191515Z AUTO 26012KT 10SM BKN060 OVC075 03/M00 A2962 RMK AO2